createdAt,value
2023-01-07T00:01:19.073Z,8.88
2023-01-07T00:03:46.855Z,5.85
2023-01-07T00:06:23.467Z,6.57
2023-01-07T00:08:52.668Z,6.32
2023-01-07T00:11:22.449Z,7.22
2023-01-07T00:13:51.324Z,5.95
2023-01-07T00:16:21.493Z,9.27
2023-01-07T00:18:50.552Z,11.93
2023-01-07T00:21:19.046Z,7.40
2023-01-07T00:23:47.635Z,4.05
2023-01-07T00:26:19.005Z,5.38
2023-01-07T00:28:48.491Z,4.72
2023-01-07T00:31:21.349Z,5.35
2023-01-07T00:33:54.799Z,8.90
2023-01-07T00:36:23.858Z,6.07
2023-01-07T00:39:00.886Z,7.10
2023-01-07T00:41:28.442Z,7.97
2023-01-07T00:43:56.381Z,6.10
2023-01-07T00:46:23.651Z,4.75
2023-01-07T00:48:50.962Z,8.20
2023-01-07T00:51:19.069Z,10.50
2023-01-07T00:53:47.271Z,11.05
2023-01-07T00:56:16.132Z,8.48
2023-01-07T00:58:43.504Z,5.68
2023-01-07T01:01:11.739Z,7.93
2023-01-07T01:03:40.756Z,5.43
2023-01-07T01:06:14.149Z,4.68
2023-01-07T01:08:46.205Z,7.65
2023-01-07T01:11:15.483Z,7.07
2023-01-07T01:13:43.733Z,5.72
2023-01-07T01:16:14.380Z,6.75
2023-01-07T01:18:42.475Z,8.15
2023-01-07T01:21:11.930Z,10.15
2023-01-07T01:23:40.055Z,5.70
2023-01-07T01:26:14.089Z,7.80
2023-01-07T01:28:41.815Z,10.85
2023-01-07T01:31:09.743Z,7.07
2023-01-07T01:33:55.465Z,7.85
2023-01-07T01:36:24.155Z,7.97
2023-01-07T01:38:53.091Z,8.70
2023-01-07T01:41:21.229Z,8.73
2023-01-07T01:43:51.625Z,9.70
2023-01-07T01:46:35.938Z,4.70
2023-01-07T01:49:25.426Z,4.18
2023-01-07T01:52:10.132Z,7.22
2023-01-07T01:54:38.920Z,8.32
2023-01-07T01:57:08.935Z,5.45
2023-01-07T01:59:39.480Z,5.90
2023-01-07T02:02:10.983Z,7.22
2023-01-07T02:04:38.855Z,10.20
2023-01-07T02:07:17.800Z,7.97
2023-01-07T02:10:19.636Z,8.05
2023-01-07T02:13:09.486Z,6.15
2023-01-07T02:15:42.492Z,7.80
2023-01-07T02:18:12.699Z,5.97
2023-01-07T02:21:25.118Z,7.47
2023-01-07T02:24:29.637Z,5.82
2023-01-07T02:27:30.864Z,4.93
2023-01-07T02:30:04.489Z,8.52
2023-01-07T02:33:16.157Z,5.72
2023-01-07T02:36:20.774Z,4.32
2023-01-07T02:39:15.848Z,7.78
2023-01-07T02:41:49.005Z,5.43
2023-01-07T02:44:51.700Z,7.97
2023-01-07T02:47:57.011Z,8.60
2023-01-07T02:50:24.374Z,3.83
2023-01-07T02:52:51.632Z,5.82
2023-01-07T02:55:22.416Z,8.38
2023-01-07T02:58:04.581Z,5.70
2023-01-07T03:01:00.955Z,6.75
2023-01-07T03:04:00.330Z,4.70
2023-01-07T03:06:56.114Z,5.38
2023-01-07T03:09:31.561Z,6.63
2023-01-07T03:12:32.722Z,6.13
2023-01-07T03:15:04.255Z,4.78
2023-01-07T03:17:46.548Z,4.70
2023-01-07T03:20:17.481Z,4.25
2023-01-07T03:22:46.563Z,5.45
2023-01-07T03:25:14.741Z,6.55
2023-01-07T03:27:44.327Z,9.30
2023-01-07T03:30:14.579Z,6.95
2023-01-07T03:33:04.825Z,8.63
2023-01-07T03:35:36.783Z,6.63
2023-01-07T03:38:05.183Z,5.07
2023-01-07T03:40:32.665Z,5.15
2023-01-07T03:43:02.388Z,6.60
2023-01-07T03:45:29.804Z,7.60
2023-01-07T03:47:59.251Z,7.38
2023-01-07T03:50:35.696Z,7.55
2023-01-07T03:53:02.866Z,8.77
2023-01-07T03:55:33.095Z,5.38
2023-01-07T03:58:00.361Z,6.28
2023-01-07T04:00:27.656Z,6.30
2023-01-07T04:03:01.583Z,12.40
2023-01-07T04:05:33.741Z,5.88
2023-01-07T04:08:01.232Z,7.28
2023-01-07T04:10:32.861Z,10.63
2023-01-07T04:12:59.963Z,7.63
2023-01-07T04:15:27.169Z,3.85
2023-01-07T04:17:54.259Z,9.40
2023-01-07T04:20:22.745Z,13.63
2023-01-07T04:22:49.988Z,8.43
2023-01-07T04:25:17.494Z,10.00
2023-01-07T04:27:45.511Z,5.22
2023-01-07T04:30:12.983Z,7.00
2023-01-07T04:32:40.244Z,6.22
2023-01-07T04:35:07.767Z,6.20
2023-01-07T04:37:35.012Z,10.60
2023-01-07T04:40:02.553Z,8.18
2023-01-07T04:42:37.152Z,4.70
2023-01-07T04:45:07.303Z,9.45
2023-01-07T04:47:34.648Z,6.43
2023-01-07T04:50:01.812Z,9.65
2023-01-07T04:52:32.519Z,6.43
2023-01-07T04:54:59.691Z,12.48
2023-01-07T04:57:27.807Z,7.60
2023-01-07T04:59:55.161Z,8.18
2023-01-07T05:02:22.372Z,5.88
2023-01-07T05:04:49.637Z,7.32
2023-01-07T05:07:18.495Z,5.72
2023-01-07T05:09:48.585Z,6.85
2023-01-07T05:12:16.242Z,14.13
2023-01-07T05:14:43.938Z,8.90
2023-01-07T05:17:11.983Z,10.48
2023-01-07T05:19:40.139Z,5.07
2023-01-07T05:22:08.520Z,5.07
2023-01-07T05:24:39.070Z,9.15
2023-01-07T05:27:06.727Z,7.05
2023-01-07T05:29:35.532Z,6.57
2023-01-07T05:32:03.050Z,6.90
2023-01-07T05:34:30.755Z,7.32
2023-01-07T05:36:58.466Z,3.88
2023-01-07T05:39:29.654Z,4.57
2023-01-07T05:41:56.960Z,4.10
2023-01-07T05:44:25.292Z,6.80
2023-01-07T05:46:52.633Z,7.50
2023-01-07T05:49:19.765Z,4.38
2023-01-07T05:51:47.078Z,9.38
2023-01-07T05:54:14.256Z,8.20
2023-01-07T05:56:41.431Z,7.15
2023-01-07T05:59:09.730Z,8.63
2023-01-07T06:01:36.939Z,7.45
2023-01-07T06:04:04.074Z,6.82
2023-01-07T06:06:31.152Z,7.07
2023-01-07T06:08:58.251Z,7.60
2023-01-07T06:11:25.345Z,5.68
2023-01-07T06:13:52.462Z,6.82
2023-01-07T06:16:19.550Z,11.23
2023-01-07T06:18:46.625Z,6.47
2023-01-07T06:21:16.195Z,5.05
2023-01-07T06:23:43.652Z,8.60
2023-01-07T06:26:10.744Z,5.90
2023-01-07T06:28:37.911Z,6.55
2023-01-07T06:31:05.279Z,3.30
2023-01-07T06:33:33.585Z,9.70
2023-01-07T06:36:00.870Z,4.25
2023-01-07T06:38:27.972Z,6.35
2023-01-07T06:40:55.138Z,6.90
2023-01-07T06:43:22.494Z,6.78
2023-01-07T06:45:52.722Z,11.23
2023-01-07T06:48:20.055Z,5.28
2023-01-07T06:50:47.304Z,11.32
2023-01-07T06:53:17.545Z,8.30
2023-01-07T06:55:49.518Z,5.38
2023-01-07T06:58:19.638Z,6.05
2023-01-07T07:00:46.797Z,7.40
2023-01-07T07:03:14.096Z,8.30
2023-01-07T07:05:41.248Z,6.55
2023-01-07T07:08:08.528Z,6.95
2023-01-07T07:10:35.763Z,11.93
2023-01-07T07:13:03.048Z,10.05
2023-01-07T07:15:30.318Z,10.02
2023-01-07T07:17:57.427Z,7.13
2023-01-07T07:20:24.507Z,5.30
2023-01-07T07:22:51.589Z,7.20
2023-01-07T07:25:18.812Z,8.77
2023-01-07T07:27:46.923Z,6.32
2023-01-07T07:30:15.364Z,9.68
2023-01-07T07:32:43.499Z,5.80
2023-01-07T07:35:11.587Z,6.10
2023-01-07T07:37:39.419Z,5.10
2023-01-07T07:40:10.211Z,8.50
2023-01-07T07:43:11.994Z,9.70
2023-01-07T07:45:25.629Z,5.22
2023-01-07T07:47:52.728Z,7.50
2023-01-07T07:50:19.850Z,7.45
2023-01-07T07:52:47.010Z,9.50
2023-01-07T07:55:20.687Z,5.30
2023-01-07T07:57:58.414Z,5.57
2023-01-07T08:00:25.646Z,9.30
2023-01-07T08:02:52.906Z,6.20
2023-01-07T08:05:20.146Z,7.50
2023-01-07T08:07:47.284Z,6.45
2023-01-07T08:10:14.615Z,8.70
2023-01-07T08:12:41.803Z,9.52
2023-01-07T08:15:09.445Z,7.75
2023-01-07T08:17:36.612Z,7.10
2023-01-07T08:20:05.609Z,6.38
2023-01-07T08:22:33.473Z,7.47
2023-01-07T08:25:00.895Z,7.90
2023-01-07T08:27:29.232Z,10.48
2023-01-07T08:29:56.809Z,7.57
2023-01-07T08:32:24.231Z,12.20
2023-01-07T08:34:51.486Z,6.03
2023-01-07T08:37:18.626Z,7.18
2023-01-07T08:39:45.788Z,7.70
2023-01-07T08:42:13.016Z,5.93
2023-01-07T08:44:40.153Z,8.63
2023-01-07T08:47:09.926Z,8.63
2023-01-07T08:49:37.094Z,4.88
2023-01-07T08:52:04.388Z,7.80
2023-01-07T08:54:31.595Z,6.00
2023-01-07T08:57:01.404Z,8.00
2023-01-07T08:59:28.594Z,7.07
2023-01-07T09:01:55.845Z,8.77
2023-01-07T09:04:23.572Z,6.47
2023-01-07T09:06:50.737Z,11.30
2023-01-07T09:09:18.003Z,5.63
2023-01-07T09:11:45.092Z,6.80
2023-01-07T09:14:15.113Z,8.88
2023-01-07T09:16:42.308Z,10.75
2023-01-07T09:19:09.708Z,6.68
2023-01-07T09:21:40.859Z,6.32
2023-01-07T09:24:08.111Z,8.82
2023-01-07T09:26:41.089Z,9.70
2023-01-07T09:29:08.178Z,4.90
2023-01-07T09:31:35.443Z,4.85
2023-01-07T09:34:02.910Z,11.82
2023-01-07T09:36:30.132Z,4.47
2023-01-07T09:38:57.236Z,8.85
2023-01-07T09:41:24.363Z,7.65
2023-01-07T09:43:59.971Z,4.22
2023-01-07T09:46:29.250Z,6.32
2023-01-07T09:49:01.748Z,4.40
2023-01-07T09:51:43.804Z,9.07
2023-01-07T09:54:38.087Z,8.57
2023-01-07T09:57:06.850Z,6.45
2023-01-07T09:59:34.394Z,7.55
2023-01-07T10:02:04.673Z,9.65
2023-01-07T10:04:40.679Z,8.82
2023-01-07T10:07:16.700Z,9.27
2023-01-07T10:10:14.535Z,9.18
2023-01-07T10:13:10.304Z,8.98
2023-01-07T10:15:59.467Z,7.65
2023-01-07T10:18:26.740Z,7.15
2023-01-07T10:21:34.848Z,6.53
2023-01-07T10:24:21.755Z,5.63
2023-01-07T10:26:53.866Z,4.88
2023-01-07T10:29:58.073Z,5.18
2023-01-07T10:32:32.151Z,5.15
2023-01-07T10:35:01.590Z,7.15
2023-01-07T10:37:41.316Z,5.40
2023-01-07T10:40:46.527Z,10.13
2023-01-07T10:43:32.487Z,10.43
2023-01-07T10:46:14.412Z,9.65
2023-01-07T10:49:09.035Z,6.15
2023-01-07T10:52:04.961Z,10.48
2023-01-07T10:54:59.848Z,16.08
2023-01-07T10:57:30.203Z,12.15
2023-01-07T11:00:02.587Z,6.45
2023-01-07T11:02:30.499Z,11.52
2023-01-07T11:04:59.331Z,14.90
2023-01-07T11:07:29.327Z,4.28
2023-01-07T11:10:00.174Z,9.15
2023-01-07T11:12:51.783Z,10.52
2023-01-07T11:15:25.212Z,5.60
2023-01-07T11:18:16.644Z,7.20
2023-01-07T11:20:43.775Z,8.18
2023-01-07T11:23:20.126Z,7.78
2023-01-07T11:25:50.543Z,15.60
2023-01-07T11:28:20.174Z,7.10
2023-01-07T11:31:00.004Z,6.85
2023-01-07T11:34:01.786Z,8.75
2023-01-07T11:36:41.823Z,11.35
2023-01-07T11:39:11.536Z,11.85
2023-01-07T11:41:54.002Z,7.82
2023-01-07T11:46:49.917Z,10.20
2023-01-07T11:49:30.083Z,9.52
2023-01-07T11:51:58.488Z,4.20
2023-01-07T11:54:30.996Z,5.47
2023-01-07T11:57:25.420Z,11.68
2023-01-07T12:00:15.558Z,9.30
2023-01-07T12:02:45.943Z,7.50
2023-01-07T12:05:33.325Z,7.40
2023-01-07T12:08:02.406Z,9.00
2023-01-07T12:10:29.564Z,7.43
2023-01-07T12:12:58.084Z,7.60
2023-01-07T12:15:31.590Z,11.32
2023-01-07T12:18:10.957Z,10.82
2023-01-07T12:20:53.053Z,14.13
2023-01-07T12:23:29.232Z,7.38
2023-01-07T12:26:17.004Z,6.47
2023-01-07T12:28:53.096Z,14.02
2023-01-07T12:31:35.782Z,11.57
2023-01-07T12:34:25.158Z,8.00
2023-01-07T12:37:18.237Z,6.43
2023-01-07T12:39:45.891Z,9.05
2023-01-07T12:42:29.015Z,10.60
2023-01-07T12:45:01.714Z,8.88
2023-01-07T12:47:39.614Z,7.88
2023-01-07T12:50:18.191Z,7.15
2023-01-07T12:52:56.363Z,10.13
2023-01-07T12:55:32.017Z,8.75
2023-01-07T12:58:09.051Z,6.25
2023-01-07T13:00:52.105Z,8.68
2023-01-07T13:03:19.436Z,5.97
2023-01-07T13:05:56.763Z,10.10
2023-01-07T13:08:28.683Z,9.13
2023-01-07T13:11:00.637Z,6.95
2023-01-07T13:13:33.011Z,7.60
2023-01-07T13:16:00.983Z,7.90
2023-01-07T13:18:29.694Z,7.15
2023-01-07T13:21:10.365Z,5.00
2023-01-07T13:24:11.501Z,12.93
2023-01-07T13:27:14.569Z,10.77
2023-01-07T13:30:02.910Z,11.13
2023-01-07T13:32:46.948Z,8.43
2023-01-07T13:35:19.963Z,7.53
2023-01-07T13:37:50.161Z,11.85
2023-01-07T13:40:59.179Z,8.77
2023-01-07T13:43:36.523Z,13.57
2023-01-07T13:46:10.118Z,7.47
2023-01-07T13:48:38.574Z,5.95
2023-01-07T13:51:08.783Z,9.85
2023-01-07T13:53:44.505Z,11.52
2023-01-07T13:56:17.861Z,10.88
2023-01-07T13:58:53.660Z,11.63
2023-01-07T14:01:21.998Z,7.63
2023-01-07T14:04:18.786Z,8.32
2023-01-07T14:06:51.876Z,7.70
2023-01-07T14:09:23.478Z,9.18
2023-01-07T14:12:05.536Z,12.52
2023-01-07T14:14:32.636Z,7.40
2023-01-07T14:17:24.166Z,10.35
2023-01-07T14:20:35.291Z,9.27
2023-01-07T14:23:18.094Z,12.63
2023-01-07T14:26:30.267Z,11.07
2023-01-07T14:29:32.476Z,10.20
2023-01-07T14:32:18.064Z,16.20
2023-01-07T14:35:01.888Z,10.43
2023-01-07T14:37:31.655Z,7.07
2023-01-07T14:39:58.863Z,8.48
2023-01-07T14:42:39.228Z,8.23
2023-01-07T14:45:41.211Z,12.05
2023-01-07T14:48:11.315Z,6.78
2023-01-07T14:51:01.963Z,9.75
2023-01-07T14:54:05.243Z,8.20
2023-01-07T14:56:41.100Z,6.63
2023-01-07T14:59:32.500Z,14.60
2023-01-07T15:02:44.376Z,6.38
2023-01-07T15:05:18.910Z,9.52
2023-01-07T15:07:51.993Z,9.13
2023-01-07T15:10:42.469Z,8.93
2023-01-07T15:13:35.648Z,7.55
2023-01-07T15:16:06.342Z,9.45
2023-01-07T15:18:47.804Z,6.72
2023-01-07T15:21:36.157Z,7.05
2023-01-07T15:24:14.857Z,8.02
2023-01-07T15:27:14.874Z,10.98
2023-01-07T15:30:00.716Z,8.70
2023-01-07T15:33:00.711Z,4.45
2023-01-07T15:35:33.799Z,6.75
2023-01-07T15:38:05.060Z,5.43
2023-01-07T15:40:32.366Z,8.50
2023-01-07T15:42:59.651Z,8.38
2023-01-07T15:45:28.581Z,6.07
2023-01-07T15:48:08.156Z,6.20
2023-01-07T15:50:37.755Z,11.30
2023-01-07T15:53:11.032Z,8.75
2023-01-07T15:55:44.089Z,5.53
2023-01-07T15:58:31.520Z,5.57
2023-01-07T16:01:00.577Z,9.35
2023-01-07T16:03:29.512Z,13.38
2023-01-07T16:05:57.890Z,8.50
2023-01-07T16:08:33.543Z,7.50
2023-01-07T16:11:21.571Z,11.10
2023-01-07T16:14:19.456Z,8.75
2023-01-07T16:16:46.987Z,9.27
2023-01-07T16:19:21.449Z,7.35
2023-01-07T16:21:55.008Z,12.13
2023-01-07T16:24:22.390Z,13.82
2023-01-07T16:26:51.425Z,16.30
2023-01-07T16:29:29.772Z,17.52
2023-01-07T16:31:58.769Z,18.02
2023-01-07T16:34:25.863Z,18.50
2023-01-07T16:36:56.202Z,13.27
2023-01-07T16:39:28.785Z,18.35
2023-01-07T16:42:15.354Z,18.60
2023-01-07T16:44:49.642Z,19.35
2023-01-07T16:47:33.061Z,14.63
2023-01-07T16:50:16.130Z,19.58
2023-01-07T16:52:55.137Z,14.25
2023-01-07T16:55:53.365Z,17.13
2023-01-07T16:58:53.078Z,13.18
2023-01-07T17:01:34.166Z,7.68
2023-01-07T17:04:07.596Z,12.75
2023-01-07T17:06:42.737Z,8.80
2023-01-07T17:09:37.209Z,11.27
2023-01-07T17:12:05.870Z,10.02
2023-01-07T17:14:37.086Z,10.90
2023-01-07T17:17:14.989Z,13.73
2023-01-07T17:19:49.392Z,11.20
2023-01-07T17:22:31.146Z,10.23
2023-01-07T17:25:16.314Z,13.65
2023-01-07T17:27:51.363Z,20.73
2023-01-07T17:30:20.822Z,15.00
2023-01-07T17:32:53.116Z,14.40
2023-01-07T17:35:25.344Z,14.63
2023-01-07T17:37:54.513Z,16.50
2023-01-07T17:40:21.947Z,12.57
2023-01-07T17:43:09.002Z,12.48
2023-01-07T17:45:36.241Z,16.20
2023-01-07T17:48:15.254Z,19.60
2023-01-07T17:50:43.070Z,16.85
2023-01-07T17:53:23.351Z,13.63
2023-01-07T17:55:50.656Z,14.00
2023-01-07T17:58:30.137Z,12.40
2023-01-07T18:00:59.749Z,15.60
2023-01-07T18:03:27.651Z,20.27
2023-01-07T18:05:54.739Z,9.82
2023-01-07T18:08:22.639Z,9.07
2023-01-07T18:11:10.477Z,6.05
2023-01-07T18:13:37.698Z,2.70
2023-01-07T18:16:05.219Z,2.40
2023-01-07T18:18:32.643Z,3.17
2023-01-07T18:20:59.832Z,5.25
2023-01-07T18:23:27.651Z,2.60
2023-01-07T18:25:55.670Z,3.53
2023-01-07T18:28:22.785Z,4.03
2023-01-07T18:30:50.014Z,2.50
2023-01-07T18:33:17.127Z,4.85
2023-01-07T18:35:44.302Z,7.32
2023-01-07T18:38:16.120Z,5.45
2023-01-07T18:40:43.669Z,3.20
2023-01-07T18:43:20.108Z,1.60
2023-01-07T18:45:48.415Z,2.10
2023-01-07T18:48:17.445Z,1.95
2023-01-07T18:50:47.199Z,1.73
2023-01-07T18:53:14.727Z,4.80
2023-01-07T18:55:43.416Z,2.63
2023-01-07T18:58:15.238Z,1.50
2023-01-07T19:00:42.931Z,2.33
2023-01-07T19:03:11.228Z,1.88
2023-01-07T19:05:41.104Z,1.70
2023-01-07T19:08:08.352Z,2.42
2023-01-07T19:10:36.416Z,3.67
2023-01-07T19:13:03.564Z,3.60
2023-01-07T19:15:30.697Z,4.50
2023-01-07T19:17:57.831Z,4.55
2023-01-07T19:20:24.959Z,5.25
2023-01-07T19:22:52.066Z,4.07
2023-01-07T19:25:19.304Z,6.03
2023-01-07T19:27:46.431Z,6.57
2023-01-07T19:30:13.674Z,5.47
2023-01-07T19:32:41.007Z,6.40
2023-01-07T19:35:08.583Z,10.18
2023-01-07T19:37:39.126Z,8.43
2023-01-07T19:40:07.155Z,5.03
2023-01-07T19:42:35.448Z,13.88
2023-01-07T19:45:03.325Z,7.20
2023-01-07T19:47:30.591Z,8.20
2023-01-07T19:49:57.742Z,7.95
2023-01-07T19:52:24.853Z,8.48
2023-01-07T19:54:52.549Z,9.43
2023-01-07T19:57:19.864Z,13.75
2023-01-07T19:59:46.979Z,9.57
2023-01-07T20:02:14.691Z,10.13
2023-01-07T20:04:43.106Z,13.63
2023-01-07T20:07:10.938Z,9.15
2023-01-07T20:09:38.339Z,11.38
2023-01-07T20:12:06.509Z,12.95
2023-01-07T20:14:33.696Z,16.38
2023-01-07T20:17:00.907Z,16.67
2023-01-07T20:19:29.903Z,10.07
2023-01-07T20:21:57.071Z,12.43
2023-01-07T20:24:24.386Z,12.93
2023-01-07T20:26:54.984Z,12.15
2023-01-07T20:29:22.233Z,17.73
2023-01-07T20:31:49.733Z,21.42
2023-01-07T20:34:17.157Z,20.52
2023-01-07T20:36:44.306Z,12.77
2023-01-07T20:39:11.508Z,10.32
2023-01-07T20:41:39.819Z,15.25
2023-01-07T20:44:08.900Z,15.93
2023-01-07T20:46:36.126Z,10.68
2023-01-07T20:49:03.197Z,15.07
2023-01-07T20:51:30.541Z,16.85
2023-01-07T20:53:58.419Z,106.88
2023-01-07T20:56:31.741Z,49.05
2023-01-07T20:59:00.360Z,26.30
2023-01-07T21:01:27.869Z,22.85
2023-01-07T21:03:55.712Z,14.70
2023-01-07T21:06:23.208Z,13.35
2023-01-07T21:08:50.505Z,12.55
2023-01-07T21:11:20.113Z,15.95
2023-01-07T21:13:48.498Z,14.00
2023-01-07T21:16:15.819Z,15.82
2023-01-07T21:18:43.471Z,10.68
2023-01-07T21:21:13.729Z,14.02
2023-01-07T21:23:41.675Z,15.20
2023-01-07T21:26:15.113Z,19.17
2023-01-07T21:28:44.511Z,12.00
2023-01-07T21:31:13.556Z,17.65
2023-01-07T21:33:41.095Z,9.45
2023-01-07T21:36:16.591Z,15.88
2023-01-07T21:38:44.639Z,19.10
2023-01-07T21:41:14.693Z,19.70
2023-01-07T21:43:42.046Z,20.77
2023-01-07T21:46:10.039Z,16.67
2023-01-07T21:48:40.255Z,12.68
2023-01-07T21:51:11.075Z,16.45
2023-01-07T21:53:38.983Z,13.02
2023-01-07T21:56:08.793Z,14.68
2023-01-07T21:58:37.038Z,23.58
2023-01-07T22:01:05.752Z,18.13
2023-01-07T22:03:33.929Z,14.68
2023-01-07T22:06:15.298Z,22.15
2023-01-07T22:08:42.732Z,22.98
2023-01-07T22:11:17.826Z,8.68
2023-01-07T22:13:44.982Z,19.27
2023-01-07T22:16:12.192Z,18.27
2023-01-07T22:18:41.025Z,16.60
2023-01-07T22:21:08.151Z,18.02
2023-01-07T22:23:37.295Z,25.80
2023-01-07T22:26:05.942Z,17.10
2023-01-07T22:28:35.850Z,19.70
2023-01-07T22:31:24.628Z,20.67
2023-01-07T22:33:52.597Z,16.55
2023-01-07T22:36:46.279Z,19.92
2023-01-07T22:39:24.065Z,14.45
2023-01-07T22:41:56.196Z,23.92
2023-01-07T22:46:54.935Z,19.38
2023-01-07T22:49:26.414Z,14.52
2023-01-07T22:51:53.751Z,17.17
2023-01-07T22:54:21.164Z,18.00
2023-01-07T22:56:48.631Z,20.80
2023-01-07T22:59:15.719Z,24.05
2023-01-07T23:01:42.776Z,20.00
2023-01-07T23:04:10.060Z,13.60
2023-01-07T23:06:37.272Z,28.17
2023-01-07T23:09:05.476Z,12.90
2023-01-07T23:11:48.513Z,23.38
2023-01-07T23:14:17.765Z,19.48
2023-01-07T23:16:44.953Z,18.05
2023-01-07T23:19:13.009Z,17.60
2023-01-07T23:21:44.602Z,21.10
2023-01-07T23:24:12.841Z,31.13
2023-01-07T23:26:40.387Z,18.23
2023-01-07T23:29:08.293Z,19.02
2023-01-07T23:31:36.562Z,21.55
2023-01-07T23:34:04.638Z,15.00
2023-01-07T23:36:32.257Z,16.13
2023-01-07T23:38:59.770Z,20.42
2023-01-07T23:41:27.073Z,17.67
2023-01-07T23:43:54.624Z,15.50
2023-01-07T23:46:21.816Z,19.30
2023-01-07T23:48:49.046Z,27.30
2023-01-07T23:51:19.354Z,24.60
2023-01-07T23:53:47.295Z,19.02
2023-01-07T23:56:17.538Z,17.92
2023-01-07T23:58:44.782Z,22.23
